createdAt,value
2018-05-23T00:00:17.121Z,61.40
2018-05-23T00:02:44.647Z,61.20
2018-05-23T00:05:12.949Z,60.50
2018-05-23T00:07:40.485Z,60.40
2018-05-23T00:10:08.870Z,60.90
2018-05-23T00:12:37.150Z,60.60
2018-05-23T00:15:04.696Z,60.50
2018-05-23T00:17:32.217Z,60.10
2018-05-23T00:19:59.740Z,61.40
2018-05-23T00:22:28.069Z,60.40
2018-05-23T00:24:55.591Z,60.30
2018-05-23T00:27:23.891Z,60.70
2018-05-23T00:29:52.211Z,60.60
2018-05-23T00:32:19.729Z,60.70
2018-05-23T00:34:47.229Z,60.90
2018-05-23T00:37:14.818Z,60.80
2018-05-23T00:39:43.841Z,61.10
2018-05-23T00:42:12.116Z,61.50
2018-05-23T00:44:39.678Z,61.30
2018-05-23T00:47:08.723Z,61.10
2018-05-23T00:49:36.226Z,61.10
2018-05-23T00:52:03.766Z,61.30
2018-05-23T00:54:31.283Z,61.50
2018-05-23T00:56:59.556Z,61.20
2018-05-23T00:59:27.094Z,61.10
2018-05-23T01:01:54.614Z,62.10
2018-05-23T01:04:22.130Z,61.70
2018-05-23T01:06:49.679Z,62.40
2018-05-23T01:09:17.186Z,62.30
2018-05-23T01:11:45.749Z,62.50
2018-05-23T01:14:13.278Z,62.50
2018-05-23T01:16:40.789Z,61.90
2018-05-23T01:19:09.090Z,62.10
2018-05-23T01:21:36.717Z,62.10
2018-05-23T01:24:04.230Z,62.40
2018-05-23T01:26:31.749Z,63.60
2018-05-23T01:28:59.287Z,63.20
2018-05-23T01:31:26.805Z,63.30
2018-05-23T01:33:55.080Z,63.70
2018-05-23T01:36:23.397Z,64.30
2018-05-23T01:38:50.915Z,64.20
2018-05-23T01:41:18.433Z,64.40
2018-05-23T01:43:45.983Z,64.00
2018-05-23T01:46:13.502Z,64.20
2018-05-23T01:48:52.933Z,64.10
2018-05-23T01:51:20.461Z,64.30
2018-05-23T01:53:48.017Z,64.20
2018-05-23T01:56:15.558Z,64.20
2018-05-23T01:58:43.841Z,64.20
2018-05-23T02:01:12.156Z,64.20
2018-05-23T02:03:39.691Z,64.20
2018-05-23T02:06:07.214Z,64.40
2018-05-23T02:08:34.731Z,64.70
2018-05-23T02:11:02.286Z,64.70
2018-05-23T02:13:30.847Z,64.90
2018-05-23T02:15:58.393Z,64.90
2018-05-23T02:18:25.930Z,65.40
2018-05-23T02:20:53.492Z,65.70
2018-05-23T02:23:20.985Z,65.90
2018-05-23T02:25:48.541Z,67.10
2018-05-23T02:28:16.066Z,66.60
2018-05-23T02:30:43.633Z,66.90
2018-05-23T02:33:11.171Z,67.20
2018-05-23T02:35:39.454Z,67.60
2018-05-23T02:38:07.763Z,68.60
2018-05-23T02:40:36.065Z,69.80
2018-05-23T02:43:03.612Z,69.70
2018-05-23T02:45:31.121Z,69.10
2018-05-23T02:47:58.673Z,68.90
2018-05-23T02:50:26.196Z,68.70
2018-05-23T02:52:53.717Z,68.40
2018-05-23T02:55:22.037Z,69.70
2018-05-23T02:57:49.567Z,69.60
2018-05-23T03:00:17.087Z,69.40
2018-05-23T03:02:44.654Z,69.60
2018-05-23T03:05:12.181Z,69.30
2018-05-23T03:07:40.475Z,68.40
2018-05-23T03:10:08.034Z,68.20
2018-05-23T03:12:36.310Z,67.80
2018-05-23T03:15:04.666Z,67.70
2018-05-23T03:17:32.218Z,67.60
2018-05-23T03:20:00.499Z,68.00
2018-05-23T03:22:28.025Z,68.10
2018-05-23T03:24:55.582Z,68.50
2018-05-23T03:27:23.113Z,68.70
2018-05-23T03:29:50.621Z,68.30
2018-05-23T03:32:18.198Z,68.20
2018-05-23T03:34:46.493Z,68.30
2018-05-23T03:37:14.781Z,68.50
2018-05-23T03:39:42.328Z,68.40
2018-05-23T03:42:09.862Z,68.10
2018-05-23T03:44:38.133Z,68.40
2018-05-23T03:47:06.439Z,69.30
2018-05-23T03:49:33.966Z,69.10
2018-05-23T03:52:02.253Z,69.60
2018-05-23T03:54:30.563Z,69.50
2018-05-23T03:56:58.074Z,69.50
2018-05-23T03:59:37.593Z,69.30
2018-05-23T04:02:16.889Z,68.80
2018-05-23T04:04:56.397Z,68.50
2018-05-23T04:07:35.698Z,67.90
2018-05-23T04:10:03.246Z,68.00
2018-05-23T04:12:30.768Z,70.60
2018-05-23T04:14:59.061Z,69.10
2018-05-23T04:17:27.393Z,69.50
2018-05-23T04:19:54.925Z,69.40
2018-05-23T04:22:22.457Z,69.60
2018-05-23T04:24:50.093Z,69.10
2018-05-23T04:27:18.310Z,69.20
2018-05-23T04:29:45.846Z,69.10
2018-05-23T04:32:13.401Z,69.30
2018-05-23T04:34:40.923Z,69.20
2018-05-23T04:37:08.453Z,69.10
2018-05-23T04:39:35.997Z,68.80
2018-05-23T04:42:03.526Z,68.20
2018-05-23T04:44:31.047Z,68.20
2018-05-23T04:46:59.359Z,69.20
2018-05-23T04:49:26.897Z,68.40
2018-05-23T04:51:55.182Z,68.90
2018-05-23T04:54:23.506Z,69.00
2018-05-23T04:56:51.043Z,68.90
2018-05-23T04:59:18.589Z,68.40
2018-05-23T05:01:46.900Z,68.20
2018-05-23T05:04:15.187Z,67.90
2018-05-23T05:06:42.702Z,67.80
2018-05-23T05:09:10.255Z,68.20
2018-05-23T05:11:37.778Z,68.00
2018-05-23T05:14:05.709Z,68.60
2018-05-23T05:16:34.021Z,67.80
2018-05-23T05:19:02.406Z,67.80
2018-05-23T05:21:29.942Z,68.80
2018-05-23T05:23:58.245Z,68.00
2018-05-23T05:26:26.527Z,68.60
2018-05-23T05:28:54.085Z,68.50
2018-05-23T05:31:22.482Z,68.00
2018-05-23T05:33:50.010Z,67.90
2018-05-23T05:36:17.519Z,68.10
2018-05-23T05:38:45.102Z,68.40
2018-05-23T05:41:12.590Z,68.60
2018-05-23T05:43:40.107Z,68.80
2018-05-23T05:46:07.682Z,68.00
2018-05-23T05:48:35.194Z,67.70
2018-05-23T05:51:02.715Z,67.40
2018-05-23T05:53:30.263Z,67.30
2018-05-23T05:55:57.777Z,66.80
2018-05-23T05:58:25.310Z,67.20
2018-05-23T06:00:52.963Z,66.90
2018-05-23T06:03:20.482Z,66.40
2018-05-23T06:05:48.005Z,66.10
2018-05-23T06:08:15.563Z,65.10
2018-05-23T06:10:43.098Z,64.70
2018-05-23T06:13:11.374Z,64.90
2018-05-23T06:15:39.685Z,65.00
2018-05-23T06:18:07.202Z,64.90
2018-05-23T06:20:35.577Z,65.00
2018-05-23T06:23:03.115Z,65.00
2018-05-23T06:25:31.472Z,64.70
2018-05-23T06:27:58.986Z,64.70
2018-05-23T06:30:26.731Z,64.90
2018-05-23T06:32:54.072Z,64.60
2018-05-23T06:35:21.583Z,64.30
2018-05-23T06:37:49.236Z,63.60
2018-05-23T06:40:16.713Z,64.60
2018-05-23T06:42:44.226Z,64.90
2018-05-23T06:45:11.803Z,63.50
2018-05-23T06:47:39.326Z,64.10
2018-05-23T06:50:07.691Z,64.40
2018-05-23T06:52:35.229Z,64.30
2018-05-23T06:55:02.746Z,64.60
2018-05-23T06:57:30.274Z,63.60
2018-05-23T06:59:57.820Z,64.20
2018-05-23T07:02:25.377Z,64.80
2018-05-23T07:04:52.901Z,64.50
2018-05-23T07:07:21.228Z,63.30
2018-05-23T07:09:48.737Z,63.30
2018-05-23T07:12:17.085Z,63.40
2018-05-23T07:14:44.624Z,63.30
2018-05-23T07:17:12.145Z,63.30
2018-05-23T07:19:40.423Z,63.10
2018-05-23T07:22:08.833Z,63.60
2018-05-23T07:24:36.366Z,63.50
2018-05-23T07:27:03.899Z,62.80
2018-05-23T07:29:31.463Z,62.80
2018-05-23T07:31:58.980Z,61.50
2018-05-23T07:34:27.271Z,61.00
2018-05-23T07:36:55.573Z,61.60
2018-05-23T07:39:23.114Z,61.60
2018-05-23T07:41:50.636Z,61.80
2018-05-23T07:44:18.200Z,62.60
2018-05-23T07:46:45.720Z,62.40
2018-05-23T07:49:13.229Z,62.90
2018-05-23T07:51:40.858Z,63.00
2018-05-23T07:54:08.377Z,62.70
2018-05-23T07:56:35.944Z,62.00
2018-05-23T07:59:03.444Z,62.20
2018-05-23T08:01:31.720Z,61.70
2018-05-23T08:04:00.021Z,61.50
2018-05-23T08:06:27.553Z,61.40
2018-05-23T08:08:55.078Z,60.40
2018-05-23T08:11:22.589Z,60.70
2018-05-23T08:13:50.902Z,59.30
2018-05-23T08:16:18.417Z,59.30
2018-05-23T08:18:46.721Z,57.70
2018-05-23T08:21:14.262Z,57.70
2018-05-23T08:23:42.618Z,59.10
2018-05-23T08:26:10.173Z,59.00
2018-05-23T08:28:37.730Z,58.70
2018-05-23T08:31:05.269Z,57.80
2018-05-23T08:33:32.781Z,57.80
2018-05-23T08:36:00.326Z,57.40
2018-05-23T08:38:27.838Z,57.20
2018-05-23T08:40:56.110Z,56.10
2018-05-23T08:43:24.418Z,56.10
2018-05-23T08:45:51.938Z,56.00
2018-05-23T08:48:20.974Z,54.60
2018-05-23T08:50:48.519Z,54.60
2018-05-23T08:53:16.813Z,53.60
2018-05-23T08:55:44.398Z,53.50
2018-05-23T08:58:11.938Z,51.60
2018-05-23T09:00:40.222Z,49.80
2018-05-23T09:03:08.531Z,48.60
2018-05-23T09:05:36.192Z,48.50
2018-05-23T09:08:03.829Z,45.90
2018-05-23T09:10:32.108Z,41.40
2018-05-23T09:13:00.422Z,41.20
2018-05-23T09:15:28.798Z,40.60
2018-05-23T09:17:56.379Z,40.60
2018-05-23T09:20:23.916Z,40.40
2018-05-23T09:22:52.212Z,41.20
2018-05-23T09:25:19.946Z,41.10
2018-05-23T09:27:48.262Z,38.60
2018-05-23T09:30:15.777Z,38.50
2018-05-23T09:32:43.281Z,35.40
2018-05-23T09:35:10.830Z,32.90
2018-05-23T09:37:39.113Z,30.40
2018-05-23T09:40:07.386Z,28.90
2018-05-23T09:42:35.685Z,28.50
2018-05-23T09:45:03.984Z,27.40
2018-05-23T09:47:31.558Z,27.40
2018-05-23T09:49:59.102Z,25.50
2018-05-23T09:52:26.642Z,25.60
2018-05-23T09:54:54.932Z,25.40
2018-05-23T09:57:22.507Z,25.30
2018-05-23T09:59:50.042Z,25.20
2018-05-23T10:02:17.574Z,26.10
2018-05-23T10:04:45.118Z,26.60
2018-05-23T10:07:12.653Z,24.60
2018-05-23T10:09:40.939Z,25.60
2018-05-23T10:12:09.299Z,24.50
2018-05-23T10:14:36.814Z,24.40
2018-05-23T10:17:04.334Z,24.80
2018-05-23T10:19:32.653Z,23.40
2018-05-23T10:22:00.168Z,23.40
2018-05-23T10:24:27.706Z,24.20
2018-05-23T10:26:55.394Z,24.30
2018-05-23T10:29:23.014Z,23.70
2018-05-23T10:31:50.532Z,22.90
2018-05-23T10:34:18.081Z,22.60
2018-05-23T10:36:45.605Z,22.70
2018-05-23T10:39:13.239Z,23.50
2018-05-23T10:41:40.769Z,23.80
2018-05-23T10:44:08.311Z,22.80
2018-05-23T10:46:35.811Z,22.60
2018-05-23T10:49:03.362Z,22.10
2018-05-23T10:51:30.875Z,22.30
2018-05-23T10:53:58.385Z,22.20
2018-05-23T10:56:25.982Z,21.60
2018-05-23T10:58:54.261Z,22.10
2018-05-23T11:01:22.615Z,22.50
2018-05-23T11:03:50.848Z,21.00
2018-05-23T11:06:18.372Z,20.90
2018-05-23T11:08:45.992Z,20.70
2018-05-23T11:11:14.563Z,21.50
2018-05-23T11:13:42.111Z,21.40
2018-05-23T11:16:10.414Z,20.80
2018-05-23T11:18:38.730Z,20.50
2018-05-23T11:21:06.250Z,20.50
2018-05-23T11:23:34.629Z,20.30
2018-05-23T11:26:02.940Z,20.80
2018-05-23T11:28:30.557Z,20.70
2018-05-23T11:30:58.090Z,21.70
2018-05-23T11:33:25.722Z,21.60
2018-05-23T11:35:54.045Z,20.30
2018-05-23T11:38:21.585Z,20.30
2018-05-23T11:40:49.143Z,20.20
2018-05-23T11:43:17.169Z,20.80
2018-05-23T11:45:44.678Z,20.80
2018-05-23T11:48:12.235Z,20.30
2018-05-23T11:50:40.535Z,20.10
2018-05-23T11:53:08.060Z,20.00
2018-05-23T11:55:35.589Z,19.70
2018-05-23T11:58:03.106Z,20.00
2018-05-23T12:00:31.386Z,18.80
2018-05-23T12:02:59.701Z,19.10
2018-05-23T12:05:27.218Z,19.00
2018-05-23T12:07:54.818Z,19.10
2018-05-23T12:10:22.475Z,20.50
2018-05-23T12:12:49.920Z,20.00
2018-05-23T12:15:18.203Z,24.90
2018-05-23T12:17:46.561Z,27.00
2018-05-23T12:20:14.083Z,26.90
2018-05-23T12:22:41.597Z,28.10
2018-05-23T12:25:09.916Z,30.00
2018-05-23T12:27:37.441Z,30.00
2018-05-23T12:30:05.090Z,31.90
2018-05-23T12:32:32.660Z,30.20
2018-05-23T12:35:00.210Z,27.70
2018-05-23T12:37:27.718Z,25.80
2018-05-23T12:39:56.039Z,24.00
2018-05-23T12:42:23.553Z,24.00
2018-05-23T12:44:51.066Z,24.10
2018-05-23T12:47:18.635Z,24.20
2018-05-23T12:49:46.155Z,25.30
2018-05-23T12:52:14.437Z,28.10
2018-05-23T12:54:42.849Z,29.00
2018-05-23T12:57:10.389Z,28.90
2018-05-23T12:59:38.665Z,29.60
2018-05-23T13:02:06.976Z,30.30
2018-05-23T13:04:34.549Z,29.80
2018-05-23T13:07:02.061Z,30.90
2018-05-23T13:09:29.600Z,29.60
2018-05-23T13:11:57.121Z,32.00
2018-05-23T13:14:24.640Z,31.10
2018-05-23T13:16:52.266Z,34.00
2018-05-23T13:19:19.773Z,34.10
2018-05-23T13:21:47.286Z,33.00
2018-05-23T13:24:14.837Z,35.10
2018-05-23T13:26:43.156Z,35.20
2018-05-23T13:29:10.682Z,35.20
2018-05-23T13:31:39.058Z,37.20
2018-05-23T13:34:08.494Z,36.50
2018-05-23T13:36:36.188Z,37.60
2018-05-23T13:39:07.559Z,36.20
2018-05-23T13:41:38.357Z,36.80
2018-05-23T13:44:07.021Z,36.90
2018-05-23T13:46:35.695Z,38.70
2018-05-23T13:49:04.037Z,37.80
2018-05-23T13:51:31.557Z,37.60
2018-05-23T13:53:59.908Z,36.30
2018-05-23T13:56:27.418Z,36.20
2018-05-23T13:58:54.938Z,36.90
2018-05-23T14:01:22.486Z,36.30
2018-05-23T14:03:50.013Z,38.30
2018-05-23T14:06:21.211Z,40.40
2018-05-23T14:08:49.277Z,39.90
2018-05-23T14:11:17.043Z,40.70
2018-05-23T14:13:45.453Z,41.10
2018-05-23T14:16:14.110Z,41.00
2018-05-23T14:18:41.628Z,42.80
2018-05-23T14:21:09.149Z,42.10
2018-05-23T14:23:36.685Z,41.90
2018-05-23T14:26:04.193Z,42.20
2018-05-23T14:28:31.725Z,41.90
2018-05-23T14:30:59.335Z,41.20
2018-05-23T14:33:27.777Z,40.70
2018-05-23T14:35:55.395Z,40.60
2018-05-23T14:38:22.851Z,40.20
2018-05-23T14:40:51.146Z,41.70
2018-05-23T14:43:19.433Z,42.20
2018-05-23T14:45:46.982Z,42.10
2018-05-23T14:48:15.266Z,41.90
2018-05-23T14:50:43.584Z,42.10
2018-05-23T14:53:11.135Z,42.00
2018-05-23T14:55:38.708Z,43.00
2018-05-23T14:58:06.225Z,44.20
2018-05-23T15:00:33.795Z,43.30
2018-05-23T15:03:01.334Z,44.70
2018-05-23T15:05:28.852Z,46.20
2018-05-23T15:07:56.374Z,45.10
2018-05-23T15:10:23.887Z,45.10
2018-05-23T15:12:51.408Z,45.80
2018-05-23T15:15:18.957Z,45.80
2018-05-23T15:17:46.468Z,46.30
2018-05-23T15:20:13.977Z,45.30
2018-05-23T15:22:41.523Z,46.70
2018-05-23T15:25:09.042Z,46.40
2018-05-23T15:27:37.331Z,46.10
2018-05-23T15:30:05.633Z,46.50
2018-05-23T15:32:33.139Z,46.50
2018-05-23T15:35:00.830Z,46.50
2018-05-23T15:37:28.367Z,45.80
2018-05-23T15:39:55.901Z,47.10
2018-05-23T15:42:23.463Z,47.10
2018-05-23T15:44:50.998Z,48.20
2018-05-23T15:47:19.273Z,48.60
2018-05-23T15:49:47.549Z,48.90
2018-05-23T15:52:15.898Z,49.10
2018-05-23T15:54:43.522Z,48.70
2018-05-23T15:57:11.059Z,48.30
2018-05-23T15:59:38.597Z,48.40
2018-05-23T16:02:06.116Z,48.40
2018-05-23T16:04:33.651Z,48.70
2018-05-23T16:07:01.212Z,48.70
2018-05-23T16:09:28.871Z,47.90
2018-05-23T16:11:56.389Z,48.70
2018-05-23T16:14:24.696Z,48.10
2018-05-23T16:16:52.246Z,48.00
2018-05-23T16:19:19.794Z,48.00
2018-05-23T16:21:47.345Z,48.50
2018-05-23T16:24:15.621Z,49.00
2018-05-23T16:26:43.900Z,48.70
2018-05-23T16:29:12.202Z,49.50
2018-05-23T16:31:39.713Z,49.40
2018-05-23T16:34:07.240Z,49.10
2018-05-23T16:36:34.953Z,48.40
2018-05-23T16:39:02.664Z,48.00
2018-05-23T16:41:30.177Z,48.60
2018-05-23T16:43:57.733Z,48.30
2018-05-23T16:46:25.266Z,48.00
2018-05-23T16:48:52.825Z,48.40
2018-05-23T16:51:21.153Z,48.50
2018-05-23T16:53:48.670Z,48.50
2018-05-23T16:56:16.192Z,49.10
2018-05-23T16:58:43.743Z,48.70
2018-05-23T17:01:11.262Z,49.50
2018-05-23T17:03:38.791Z,50.30
2018-05-23T17:06:06.343Z,50.60
2018-05-23T17:08:34.630Z,50.80
2018-05-23T17:11:02.262Z,50.80
2018-05-23T17:13:29.806Z,50.00
2018-05-23T17:15:57.313Z,49.40
2018-05-23T17:18:24.836Z,49.50
2018-05-23T17:20:52.376Z,50.70
2018-05-23T17:23:20.669Z,51.60
2018-05-23T17:25:48.251Z,51.40
2018-05-23T17:28:15.810Z,51.40
2018-05-23T17:30:43.328Z,51.70
2018-05-23T17:33:11.665Z,52.70
2018-05-23T17:35:39.185Z,52.60
2018-05-23T17:38:06.939Z,52.40
2018-05-23T17:40:34.463Z,52.80
2018-05-23T17:43:02.011Z,52.30
2018-05-23T17:45:30.316Z,53.50
2018-05-23T17:47:57.830Z,53.40
2018-05-23T17:50:26.131Z,53.30
2018-05-23T17:52:53.661Z,53.20
2018-05-23T17:55:21.186Z,53.50
2018-05-23T17:57:48.727Z,53.80
2018-05-23T18:00:16.262Z,54.80
2018-05-23T18:02:44.540Z,55.80
2018-05-23T18:05:12.087Z,55.70
2018-05-23T18:07:39.598Z,56.20
2018-05-23T18:10:07.117Z,56.50
2018-05-23T18:12:34.665Z,57.60
2018-05-23T18:15:02.178Z,57.80
2018-05-23T18:17:30.840Z,58.10
2018-05-23T18:19:58.464Z,58.50
2018-05-23T18:22:26.022Z,58.50
2018-05-23T18:24:53.533Z,58.40
2018-05-23T18:27:21.119Z,59.10
2018-05-23T18:32:22.381Z,59.40
2018-05-23T18:34:50.665Z,59.40
2018-05-23T18:37:18.175Z,59.40
2018-05-23T18:39:45.806Z,59.50
2018-05-23T18:42:14.080Z,60.10
2018-05-23T18:44:42.354Z,60.70
2018-05-23T18:47:09.896Z,60.60
2018-05-23T18:49:37.415Z,60.40
2018-05-23T18:52:04.931Z,60.50
2018-05-23T18:54:34.031Z,62.10
2018-05-23T18:57:01.561Z,62.00
2018-05-23T18:59:29.239Z,62.10
2018-05-23T19:01:56.779Z,61.90
2018-05-23T19:04:24.298Z,62.10
2018-05-23T19:06:52.582Z,62.80
2018-05-23T19:09:20.153Z,62.80
2018-05-23T19:11:47.668Z,63.20
2018-05-23T19:16:39.699Z,63.20
2018-05-23T19:19:07.215Z,63.10
2018-05-23T19:21:34.732Z,63.70
2018-05-23T19:24:02.278Z,63.70
2018-05-23T19:26:30.558Z,64.20
2018-05-23T19:28:58.840Z,64.10
2018-05-23T19:31:27.142Z,64.30
2018-05-23T19:33:54.657Z,64.20
2018-05-23T19:36:22.166Z,64.00
2018-05-23T19:38:49.707Z,65.00
2018-05-23T19:41:18.081Z,64.90
2018-05-23T19:43:47.102Z,65.20
2018-05-23T19:46:15.422Z,65.70
2018-05-23T19:48:42.926Z,65.60
2018-05-23T19:51:10.442Z,65.60
2018-05-23T19:53:37.974Z,65.70
2018-05-23T19:56:06.268Z,65.70
2018-05-23T19:58:33.815Z,65.70
2018-05-23T20:01:02.146Z,66.80
2018-05-23T20:03:29.701Z,66.70
2018-05-23T20:05:57.255Z,66.50
2018-05-23T20:08:24.831Z,66.80
2018-05-23T20:10:52.395Z,67.10
2018-05-23T20:13:19.935Z,67.60
2018-05-23T20:15:47.471Z,67.90
2018-05-23T20:18:14.999Z,67.90
2018-05-23T20:20:42.537Z,68.40
2018-05-23T20:23:10.129Z,68.00
2018-05-23T20:25:37.642Z,68.50
2018-05-23T20:28:05.921Z,68.90
2018-05-23T20:30:34.325Z,68.30
2018-05-23T20:33:01.880Z,68.20
2018-05-23T20:35:30.244Z,68.80
2018-05-23T20:37:57.726Z,68.70
2018-05-23T20:40:26.051Z,68.50
2018-05-23T20:42:53.726Z,68.50
2018-05-23T20:45:21.363Z,68.90
2018-05-23T20:47:48.896Z,68.90
2018-05-23T20:50:18.406Z,70.00
2018-05-23T20:52:46.719Z,69.70
2018-05-23T20:55:14.234Z,69.60
2018-05-23T20:57:41.758Z,68.90
2018-05-23T21:00:09.304Z,69.20
2018-05-23T21:02:36.824Z,68.90
2018-05-23T21:05:04.396Z,69.70
2018-05-23T21:07:31.921Z,69.90
2018-05-23T21:09:59.448Z,69.90
2018-05-23T21:12:27.764Z,69.70
2018-05-23T21:14:55.334Z,69.60
2018-05-23T21:17:22.876Z,69.80
2018-05-23T21:19:50.399Z,70.00
2018-05-23T21:22:17.954Z,70.10
2018-05-23T21:24:45.470Z,71.00
2018-05-23T21:27:13.017Z,71.20
2018-05-23T21:29:40.575Z,70.90
2018-05-23T21:32:08.102Z,70.70
2018-05-23T21:34:36.425Z,71.40
2018-05-23T21:37:04.733Z,71.50
2018-05-23T21:39:32.290Z,71.40
2018-05-23T21:41:59.824Z,71.80
2018-05-23T21:44:28.239Z,73.60
2018-05-23T21:46:56.535Z,73.80
2018-05-23T21:49:24.085Z,73.00
2018-05-23T21:51:51.679Z,72.70
2018-05-23T21:54:19.208Z,73.50
2018-05-23T21:56:46.730Z,73.00
2018-05-23T21:59:14.291Z,73.10
2018-05-23T22:01:42.601Z,72.90
2018-05-23T22:04:10.895Z,72.70
2018-05-23T22:06:38.454Z,72.60
2018-05-23T22:09:06.777Z,74.00
2018-05-23T22:11:35.062Z,73.00
2018-05-23T22:14:02.628Z,72.90
2018-05-23T22:16:30.171Z,73.20
2018-05-23T22:18:57.696Z,73.50
2018-05-23T22:21:26.011Z,73.30
2018-05-23T22:23:53.533Z,73.30
2018-05-23T22:26:21.061Z,73.30
2018-05-23T22:28:48.622Z,74.20
2018-05-23T22:31:16.154Z,73.50
2018-05-23T22:33:43.726Z,74.30
2018-05-23T22:36:11.278Z,73.60
2018-05-23T22:38:39.558Z,74.70
2018-05-23T22:41:07.092Z,74.70
2018-05-23T22:43:34.727Z,74.70
2018-05-23T22:46:02.358Z,74.30
2018-05-23T22:48:30.653Z,74.60
2018-05-23T22:50:58.223Z,75.20
2018-05-23T22:53:25.753Z,75.40
2018-05-23T22:55:54.046Z,75.20
2018-05-23T22:58:22.361Z,74.90
2018-05-23T23:00:49.893Z,74.90
2018-05-23T23:03:18.178Z,74.60
2018-05-23T23:05:45.734Z,74.60
2018-05-23T23:08:14.066Z,75.10
2018-05-23T23:10:41.600Z,75.00
2018-05-23T23:13:09.164Z,75.70
2018-05-23T23:15:36.766Z,75.40
2018-05-23T23:18:04.318Z,75.20
2018-05-23T23:20:31.881Z,75.30
2018-05-23T23:22:59.438Z,75.70
2018-05-23T23:25:26.982Z,75.30
2018-05-23T23:27:54.813Z,75.50
2018-05-23T23:30:22.350Z,76.70
2018-05-23T23:32:49.888Z,76.20
2018-05-23T23:35:17.448Z,76.30
2018-05-23T23:37:45.398Z,76.80
2018-05-23T23:40:13.690Z,77.10
2018-05-23T23:42:42.005Z,77.40
2018-05-23T23:45:10.294Z,77.40
2018-05-23T23:47:37.917Z,77.30
2018-05-23T23:50:07.051Z,77.20
2018-05-23T23:52:34.581Z,77.10
2018-05-23T23:55:02.871Z,78.00
2018-05-23T23:57:31.186Z,78.00
2018-05-23T23:59:58.718Z,77.90
